createdAt,value
2018-12-04T00:02:39.992Z,99627.56
2018-12-04T00:07:42.976Z,99631.79
2018-12-04T00:12:45.718Z,99637.70
2018-12-04T00:17:48.719Z,99640.66
2018-12-04T00:22:51.615Z,99642.79
2018-12-04T00:27:54.384Z,99650.45
2018-12-04T00:32:57.353Z,99657.19
2018-12-04T00:38:00.232Z,99662.14
2018-12-04T00:43:03.154Z,99674.55
2018-12-04T00:48:06.055Z,99675.60
2018-12-04T00:53:09.876Z,99684.80
2018-12-04T00:58:12.566Z,99689.78
2018-12-04T01:03:15.557Z,99695.70
2018-12-04T01:08:18.507Z,99697.36
2018-12-04T01:13:21.462Z,99701.83
2018-12-04T01:18:25.381Z,99699.19
2018-12-04T01:23:28.077Z,99699.66
2018-12-04T01:28:31.049Z,99708.17
2018-12-04T01:33:34.689Z,99711.25
2018-12-04T01:38:37.433Z,99722.48
2018-12-04T01:43:40.206Z,99717.39
2018-12-04T01:48:43.094Z,99710.31
2018-12-04T01:53:45.865Z,99711.61
2018-12-04T01:58:48.721Z,99714.83
2018-12-04T02:03:51.624Z,99716.34
2018-12-04T02:08:54.425Z,99723.79
2018-12-04T02:13:57.625Z,99722.48
2018-12-04T02:19:00.564Z,99714.11
2018-12-04T02:24:03.424Z,99722.38
2018-12-04T02:29:06.636Z,99724.25
2018-12-04T02:34:09.533Z,99728.05
2018-12-04T02:39:12.477Z,99733.83
2018-12-04T02:44:15.377Z,99746.25
2018-12-04T02:49:18.133Z,99756.61
2018-12-04T02:54:20.990Z,99764.31
2018-12-04T02:59:23.901Z,99781.11
2018-12-04T03:04:27.241Z,99808.06
2018-12-04T03:09:30.102Z,99820.48
2018-12-04T03:14:33.048Z,99836.92
2018-12-04T03:19:35.736Z,99867.07
2018-12-04T03:24:38.568Z,99875.05
2018-12-04T03:29:41.352Z,99890.72
2018-12-04T03:34:44.023Z,99908.41
2018-12-04T03:39:48.049Z,99927.03
2018-12-04T03:44:52.049Z,99952.75
2018-12-04T03:49:54.917Z,99961.23
2018-12-04T03:54:57.620Z,99984.11
2018-12-04T04:00:00.491Z,99992.83
2018-12-04T04:05:03.766Z,100013.23
2018-12-04T04:10:07.495Z,100028.82
2018-12-04T04:15:10.522Z,100032.12
2018-12-04T04:20:13.292Z,100030.34
2018-12-04T04:25:16.061Z,100054.28
2018-12-04T04:30:18.739Z,100063.92
2018-12-04T04:35:21.529Z,100073.02
2018-12-04T04:40:24.309Z,100094.75
2018-12-04T04:45:27.079Z,100103.56
2018-12-04T04:50:29.853Z,100117.38
2018-12-04T04:55:32.571Z,100131.88
2018-12-04T05:00:35.625Z,100147.50
2018-12-04T05:05:40.449Z,100150.06
2018-12-04T05:10:43.365Z,100162.86
2018-12-04T05:15:46.105Z,100178.44
2018-12-04T05:20:48.834Z,100196.82
2018-12-04T05:25:51.493Z,100213.53
2018-12-04T05:30:54.243Z,100239.79
2018-12-04T05:35:57.087Z,100252.52
2018-12-04T05:40:59.981Z,100269.84
2018-12-04T05:46:03.609Z,100277.72
2018-12-04T05:51:06.511Z,100290.62
2018-12-04T05:56:12.210Z,100303.05
2018-12-04T06:01:15.428Z,100321.80
2018-12-04T06:06:19.653Z,100337.91
2018-12-04T06:11:22.685Z,100347.45
2018-12-04T06:16:25.774Z,100361.84
2018-12-04T06:21:28.857Z,100372.09
2018-12-04T06:26:31.760Z,100386.02
2018-12-04T06:31:41.444Z,100382.97
2018-12-04T06:36:44.441Z,100395.85
2018-12-04T06:41:47.204Z,100430.31
2018-12-04T06:46:50.144Z,100448.56
2018-12-04T06:51:53.115Z,100465.34
2018-12-04T06:56:55.755Z,100477.02
2018-12-04T07:01:58.838Z,100501.02
2018-12-04T07:07:01.677Z,100508.22
2018-12-04T07:12:04.605Z,100524.70
2018-12-04T07:17:07.556Z,100541.95
2018-12-04T07:22:10.381Z,100547.88
2018-12-04T07:27:13.308Z,100568.05
2018-12-04T07:32:16.105Z,100581.09
2018-12-04T07:37:18.829Z,100590.92
2018-12-04T07:42:21.738Z,100606.45
2018-12-04T07:47:24.852Z,100610.41
2018-12-04T07:52:27.601Z,100633.98
2018-12-04T07:57:30.446Z,100645.27
2018-12-04T08:02:33.214Z,100660.52
2018-12-04T08:07:36.093Z,100682.28
2018-12-04T08:12:38.893Z,100695.90
2018-12-04T08:17:42.960Z,100706.02
2018-12-04T08:22:46.002Z,100714.00
2018-12-04T08:27:48.618Z,100715.95
2018-12-04T08:32:51.533Z,100722.76
2018-12-04T08:37:54.244Z,100730.53
2018-12-04T08:42:57.037Z,100746.23
2018-12-04T08:47:59.796Z,100760.44
2018-12-04T08:53:02.731Z,100781.44
2018-12-04T08:58:05.644Z,100785.08
2018-12-04T09:03:08.567Z,100806.20
2018-12-04T09:08:11.403Z,100812.95
2018-12-04T09:13:14.393Z,100824.49
2018-12-04T09:18:17.366Z,100845.62
2018-12-04T09:23:20.325Z,100855.13
2018-12-04T09:28:23.282Z,100866.55
2018-12-04T09:33:26.449Z,100870.38
2018-12-04T09:38:29.417Z,100878.69
2018-12-04T09:43:32.227Z,100885.88
2018-12-04T09:48:35.233Z,100897.86
2018-12-04T09:53:39.017Z,100908.84
2018-12-04T09:58:41.846Z,100907.07
2018-12-04T10:03:44.678Z,100903.06
2018-12-04T10:08:47.513Z,100918.97
2018-12-04T10:13:50.433Z,100914.18
2018-12-04T10:18:53.506Z,100919.16
2018-12-04T10:23:56.579Z,100922.79
2018-12-04T10:28:59.414Z,100930.32
2018-12-04T10:34:02.361Z,100944.66
2018-12-04T10:44:21.270Z,100964.80
2018-12-04T10:49:26.997Z,100977.13
2018-12-04T10:54:29.991Z,100976.17
2018-12-04T10:59:32.826Z,100976.63
2018-12-04T11:04:35.487Z,100981.81
2018-12-04T11:09:38.343Z,100990.13
2018-12-04T11:14:41.242Z,101000.40
2018-12-04T11:19:44.013Z,101001.58
2018-12-04T11:24:46.895Z,101006.75
2018-12-04T11:29:49.698Z,101017.47
2018-12-04T11:34:52.568Z,101023.79
2018-12-04T11:39:55.352Z,101037.05
2018-12-04T11:44:58.220Z,101047.36
2018-12-04T11:50:01.008Z,101051.02
2018-12-04T11:55:04.265Z,101056.22
2018-12-04T12:00:16.817Z,101069.42
2018-12-04T12:05:19.664Z,101077.92
2018-12-04T12:10:24.656Z,101089.06
2018-12-04T12:15:27.360Z,101098.92
2018-12-04T12:20:30.113Z,101094.23
2018-12-04T12:25:32.952Z,101099.62
2018-12-04T12:30:35.736Z,101100.12
2018-12-04T12:35:38.745Z,101106.38
2018-12-04T12:40:41.467Z,101116.00
2018-12-04T12:45:44.420Z,101124.59
2018-12-04T12:50:47.199Z,101120.59
2018-12-04T12:55:50.210Z,101131.38
2018-12-04T13:00:53.007Z,101145.75
2018-12-04T13:05:55.854Z,101159.20
2018-12-04T13:10:58.761Z,101153.00
2018-12-04T13:16:01.612Z,101173.87
2018-12-04T13:21:04.602Z,101185.30
2018-12-04T13:26:07.513Z,101191.58
2018-12-04T13:31:10.327Z,101206.96
2018-12-04T13:36:13.371Z,101208.79
2018-12-04T13:41:16.209Z,101224.60
2018-12-04T13:46:19.106Z,101235.41
2018-12-04T13:51:22.008Z,101225.01
2018-12-04T13:56:24.552Z,101248.42
2018-12-04T14:01:27.315Z,101249.69
2018-12-04T14:06:30.310Z,101271.05
2018-12-04T14:11:33.286Z,101279.05
2018-12-04T14:16:36.100Z,101292.76
2018-12-04T14:21:38.983Z,101303.39
2018-12-04T14:26:42.090Z,101321.83
2018-12-04T14:31:45.216Z,101338.61
2018-12-04T14:36:48.885Z,101347.23
2018-12-04T14:41:52.024Z,101359.34
2018-12-04T14:46:54.844Z,101371.60
2018-12-04T14:51:57.885Z,101379.72
2018-12-04T14:57:00.764Z,101392.27
2018-12-04T15:02:03.884Z,101391.29
2018-12-04T15:07:06.943Z,101407.77
2018-12-04T15:12:10.017Z,101425.31
2018-12-04T15:17:12.767Z,101442.78
2018-12-04T15:22:15.580Z,101445.62
2018-12-04T15:27:18.650Z,101458.84
2018-12-04T15:32:21.365Z,101464.16
2018-12-04T15:37:24.426Z,101479.53
2018-12-04T15:42:27.406Z,101494.61
2018-12-04T15:47:30.454Z,101499.18
2018-12-04T15:52:33.430Z,101497.54
2018-12-04T15:57:36.316Z,101511.52
2018-12-04T16:02:39.398Z,101517.06
2018-12-04T16:07:42.328Z,101522.73
2018-12-04T16:12:45.291Z,101523.66
2018-12-04T16:17:48.159Z,101539.60
2018-12-04T16:22:50.911Z,101545.53
2018-12-04T16:27:53.720Z,101560.95
2018-12-04T16:32:56.570Z,101579.86
2018-12-04T16:37:59.600Z,101592.97
2018-12-04T16:43:02.428Z,101601.45
2018-12-04T16:48:05.497Z,101604.73
2018-12-04T16:53:08.286Z,101618.80
2018-12-04T16:58:11.193Z,101632.53
2018-12-04T17:03:14.065Z,101635.09
2018-12-04T17:08:16.928Z,101640.75
2018-12-04T17:13:19.965Z,101646.48
2018-12-04T17:18:22.641Z,101656.38
2018-12-04T17:23:25.898Z,101670.72
2018-12-04T17:28:28.969Z,101663.33
2018-12-04T17:33:32.131Z,101676.81
2018-12-04T17:38:34.952Z,101680.98
2018-12-04T17:43:37.854Z,101680.57
2018-12-04T17:48:40.806Z,101686.53
2018-12-04T17:53:43.540Z,101694.56
2018-12-04T17:58:48.232Z,101690.69
2018-12-04T18:03:50.887Z,101704.59
2018-12-04T18:08:53.877Z,101718.36
2018-12-04T18:13:58.701Z,101731.05
2018-12-04T18:19:03.005Z,101726.96
2018-12-04T18:24:06.037Z,101742.18
2018-12-04T18:29:08.844Z,101754.34
2018-12-04T18:34:11.689Z,101757.18
2018-12-04T18:39:15.026Z,101755.26
2018-12-04T18:44:18.629Z,101760.52
2018-12-04T18:49:21.326Z,101760.13
2018-12-04T18:54:24.171Z,101760.58
2018-12-04T18:59:27.237Z,101770.59
2018-12-04T19:04:30.214Z,101781.97
2018-12-04T19:09:33.158Z,101786.31
2018-12-04T19:14:36.180Z,101783.48
2018-12-04T19:19:39.101Z,101794.70
2018-12-04T19:24:41.917Z,101797.08
2018-12-04T19:29:44.684Z,101806.94
2018-12-04T19:34:47.586Z,101822.12
2018-12-04T19:39:50.297Z,101825.14
2018-12-04T19:44:53.115Z,101839.75
2018-12-04T19:49:56.088Z,101837.61
2018-12-04T19:54:59.057Z,101845.34
2018-12-04T20:00:02.248Z,101852.70
2018-12-04T20:05:06.749Z,101858.69
2018-12-04T20:10:09.857Z,101873.29
2018-12-04T20:15:13.164Z,101889.16
2018-12-04T20:20:16.087Z,101896.10
2018-12-04T20:25:19.300Z,101915.04
2018-12-04T20:30:22.213Z,101912.98
2018-12-04T20:35:25.087Z,101918.05
2018-12-04T20:40:31.568Z,101923.73
2018-12-04T20:45:32.973Z,101937.13
2018-12-04T20:50:35.893Z,101935.45
2018-12-04T20:55:38.833Z,101949.41
2018-12-04T21:00:42.786Z,101956.31
2018-12-04T21:05:45.786Z,101954.64
2018-12-04T21:10:49.519Z,101962.59
2018-12-04T21:15:52.365Z,101967.09
2018-12-04T21:20:55.371Z,101972.44
2018-12-04T21:25:58.215Z,101985.47
2018-12-04T21:31:07.021Z,101990.25
2018-12-04T21:36:15.865Z,101998.91
2018-12-04T21:41:24.678Z,102001.50
2018-12-04T21:46:33.726Z,102002.48
2018-12-04T21:51:36.521Z,102026.13
2018-12-04T21:56:39.433Z,102015.46
2018-12-04T22:01:42.508Z,102027.96
2018-12-04T22:06:45.286Z,102038.34
2018-12-04T22:11:48.086Z,102045.70
2018-12-04T22:16:50.891Z,102049.20
2018-12-04T22:21:53.804Z,102049.23
2018-12-04T22:26:56.693Z,102065.13
2018-12-04T22:31:59.559Z,102072.08
2018-12-04T22:37:02.424Z,102079.36
2018-12-04T22:42:05.276Z,102071.64
2018-12-04T22:47:08.278Z,102076.79
2018-12-04T22:52:11.188Z,102082.44
2018-12-04T22:57:14.006Z,102079.92
2018-12-04T23:02:17.001Z,102079.08
2018-12-04T23:07:19.985Z,102079.58
2018-12-04T23:12:23.189Z,102083.02
2018-12-04T23:17:26.230Z,102090.81
2018-12-04T23:22:29.246Z,102101.97
2018-12-04T23:27:32.132Z,102105.90
2018-12-04T23:32:36.129Z,102090.52
2018-12-04T23:37:39.192Z,102105.19
2018-12-04T23:42:42.068Z,102108.14
2018-12-04T23:47:44.902Z,102117.56
2018-12-04T23:52:47.857Z,102112.48
2018-12-04T23:57:50.801Z,102118.91
